PWSweather.com
Personal Weather Stations
Station Observations
IONTARIO88
Lincoln, ON L0R

Lincoln, ON L0R

Lat: 43.1763563, Lon: -79.4719525

Elevation: 297

Station Type: Davis Vantage Pro 2 Plus

http://www.beamsvillewx.ca

Latest ConditionsUpdated 2:45:01 PM EST Sunday, Nov 19, 2017
Currently Today's Max Today's Min Today's Average
Temperature 37.2°F2.9°C 42.3°F5.7°C 37.0°F2.8°C 39.2°F4.0°C
Dew Point 32.2°F0.1°C 40.7°F4.8°C 31.3°F-0.4°C 34.0°F1.1°C
Winds 10.0 mph WNW16.1 kmh WNW 16.0 mph NW25.7 kmh NW - 10.3 mph 16.6 kmh
Wind Gusts 23.0 mph37.0 kmh 29.0 mph46.7 kmh - -
Humidity 82% 94% 69% 82%
Pressure 29.69 in1005.4 mb 29.69 in1005.4 mb 29.14 in986.8 mb -
Precipitation - 0.13 in3.3 mm - -
Hour Temp Dew Point Humidity Winds Wind Gusts Pressure Precip Precip Rate Daily Precip Total
02:45 PM 37.2°F2.9°C 32.2°F0.1°C 82% 10.0 mph WNW16.1 kmh WNW 23.0 mph37.0 kmh 29.69 in1005.4 mb 0.00 in0.0 mm 0.00 in0.0 mm 0.13 in3.3 mm
02:30 PM 37.4°F3.0°C 32.1°F0.1°C 81% 15.0 mph NW24.1 kmh NW 29.0 mph46.7 kmh 29.69 in1005.4 mb 0.00 in0.0 mm 0.00 in0.0 mm 0.13 in3.3 mm
02:15 PM 40.6°F4.8°C 31.3°F-0.4°C 69% 10.0 mph WNW16.1 kmh WNW 22.0 mph35.4 kmh 29.68 in1005.1 mb 0.00 in0.0 mm 0.00 in0.0 mm 0.13 in3.3 mm
02:00 PM 40.6°F4.8°C 32.7°F0.4°C 73% 7.0 mph WNW11.3 kmh WNW 14.0 mph22.5 kmh 29.68 in1005.1 mb 0.00 in0.0 mm 0.00 in0.0 mm 0.13 in3.3 mm
01:45 PM 40.5°F4.7°C 32.1°F0.1°C 72% 10.0 mph WNW16.1 kmh WNW 20.0 mph32.2 kmh 29.67 in1004.7 mb 0.00 in0.0 mm 0.00 in0.0 mm 0.13 in3.3 mm
01:30 PM 40.8°F4.9°C 31.4°F-0.3°C 69% 10.0 mph WNW16.1 kmh WNW 20.0 mph32.2 kmh 29.67 in1004.7 mb 0.00 in0.0 mm 0.00 in0.0 mm 0.13 in3.3 mm
01:15 PM 40.6°F4.8°C 31.3°F-0.4°C 69% 8.0 mph WNW12.9 kmh WNW 18.0 mph29.0 kmh 29.67 in1004.7 mb 0.00 in0.0 mm 0.00 in0.0 mm 0.13 in3.3 mm
01:00 PM 40.6°F4.8°C 31.3°F-0.4°C 69% 9.0 mph NW14.5 kmh NW 18.0 mph29.0 kmh 29.67 in1004.7 mb 0.00 in0.0 mm 0.00 in0.0 mm 0.13 in3.3 mm
12:45 PM 41.0°F5.0°C 32.0°F0.0°C 70% 9.0 mph WNW14.5 kmh WNW 19.0 mph30.6 kmh 29.66 in1004.4 mb 0.00 in0.0 mm 0.00 in0.0 mm 0.13 in3.3 mm
12:30 PM 40.8°F4.9°C 31.8°F-0.1°C 70% 9.0 mph NW14.5 kmh NW 16.0 mph25.7 kmh 29.67 in1004.7 mb 0.00 in0.0 mm 0.00 in0.0 mm 0.13 in3.3 mm
12:15 PM 40.5°F4.7°C 31.4°F-0.3°C 70% 10.0 mph NW16.1 kmh NW 20.0 mph32.2 kmh 29.66 in1004.4 mb 0.00 in0.0 mm 0.00 in0.0 mm 0.13 in3.3 mm
12:00 PM 41.0°F5.0°C 32.0°F0.0°C 70% 10.0 mph NW16.1 kmh NW 20.0 mph32.2 kmh 29.66 in1004.4 mb 0.00 in0.0 mm 0.00 in0.0 mm 0.13 in3.3 mm
11:45 AM 41.4°F5.2°C 33.4°F0.8°C 73% 7.0 mph NW11.3 kmh NW 17.0 mph27.4 kmh 29.66 in1004.4 mb 0.00 in0.0 mm 0.00 in0.0 mm 0.13 in3.3 mm
11:30 AM 39.7°F4.3°C 32.1°F0.1°C 74% 8.0 mph NW12.9 kmh NW 16.0 mph25.7 kmh 29.65 in1004.1 mb 0.01 in0.3 mm 0.00 in0.0 mm 0.13 in3.3 mm
11:15 AM 38.7°F3.7°C 34.5°F1.4°C 85% 7.0 mph WNW11.3 kmh WNW 16.0 mph25.7 kmh 29.66 in1004.4 mb 0.01 in0.3 mm 0.00 in0.0 mm 0.13 in3.3 mm
11:00 AM 37.9°F3.3°C 34.7°F1.5°C 88% 3.0 mph NW4.8 kmh NW 9.0 mph14.5 kmh 29.66 in1004.4 mb 0.01 in0.3 mm 0.00 in0.0 mm 0.13 in3.3 mm
10:45 AM 37.6°F3.1°C 34.1°F1.2°C 87% 7.0 mph WNW11.3 kmh WNW 13.0 mph20.9 kmh 29.66 in1004.4 mb 0.01 in0.3 mm 0.04 in1.0 mm 0.13 in3.3 mm
10:30 AM 38.8°F3.8°C 34.1°F1.2°C 83% 7.0 mph NW11.3 kmh NW 16.0 mph25.7 kmh 29.65 in1004.1 mb 0.00 in0.0 mm 0.00 in0.0 mm 0.13 in3.3 mm
10:15 AM 39.2°F4.0°C 33.2°F0.7°C 79% 8.0 mph WNW12.9 kmh WNW 16.0 mph25.7 kmh 29.65 in1004.1 mb 0.00 in0.0 mm 0.00 in0.0 mm 0.13 in3.3 mm
10:00 AM 39.6°F4.2°C 32.3°F0.2°C 75% 8.0 mph NW12.9 kmh NW 17.0 mph27.4 kmh 29.64 in1003.7 mb 0.00 in0.0 mm 0.00 in0.0 mm 0.13 in3.3 mm
09:45 AM 39.4°F4.1°C 32.4°F0.2°C 76% 9.0 mph NW14.5 kmh NW 17.0 mph27.4 kmh 29.63 in1003.4 mb 0.00 in0.0 mm 0.00 in0.0 mm 0.13 in3.3 mm
09:30 AM 39.4°F4.1°C 32.4°F0.2°C 76% 8.0 mph NW12.9 kmh NW 16.0 mph25.7 kmh 29.63 in1003.4 mb 0.00 in0.0 mm 0.00 in0.0 mm 0.13 in3.3 mm
09:15 AM 39.0°F3.9°C 31.8°F-0.1°C 75% 9.0 mph NW14.5 kmh NW 19.0 mph30.6 kmh 29.62 in1003.0 mb 0.00 in0.0 mm 0.00 in0.0 mm 0.13 in3.3 mm
09:00 AM 39.0°F3.9°C 32.4°F0.2°C 77% 8.0 mph NW12.9 kmh NW 18.0 mph29.0 kmh 29.61 in1002.7 mb 0.00 in0.0 mm 0.00 in0.0 mm 0.13 in3.3 mm
08:45 AM 38.7°F3.7°C 32.4°F0.2°C 78% 11.0 mph WNW17.7 kmh WNW 20.0 mph32.2 kmh 29.60 in1002.4 mb 0.00 in0.0 mm 0.00 in0.0 mm 0.13 in3.3 mm
08:30 AM 38.1°F3.4°C 31.9°F-0.1°C 78% 9.0 mph NW14.5 kmh NW 19.0 mph30.6 kmh 29.59 in1002.0 mb 0.00 in0.0 mm 0.00 in0.0 mm 0.13 in3.3 mm
08:15 AM 37.9°F3.3°C 32.3°F0.2°C 80% 9.0 mph NW14.5 kmh NW 21.0 mph33.8 kmh 29.59 in1002.0 mb 0.00 in0.0 mm 0.00 in0.0 mm 0.13 in3.3 mm
08:00 AM 37.0°F2.8°C 31.4°F-0.3°C 80% 8.0 mph WNW12.9 kmh WNW 16.0 mph25.7 kmh 29.58 in1001.7 mb 0.00 in0.0 mm 0.00 in0.0 mm 0.13 in3.3 mm
07:45 AM 37.6°F3.1°C 32.0°F0.0°C 80% 9.0 mph WNW14.5 kmh WNW 18.0 mph29.0 kmh 29.57 in1001.4 mb 0.00 in0.0 mm 0.00 in0.0 mm 0.13 in3.3 mm
07:30 AM 37.9°F3.3°C 32.3°F0.2°C 80% 8.0 mph WNW12.9 kmh WNW 18.0 mph29.0 kmh 29.56 in1001.0 mb 0.00 in0.0 mm 0.00 in0.0 mm 0.13 in3.3 mm
07:15 AM 38.1°F3.4°C 32.8°F0.4°C 81% 8.0 mph WNW12.9 kmh WNW 15.0 mph24.1 kmh 29.55 in1000.7 mb 0.00 in0.0 mm 0.00 in0.0 mm 0.13 in3.3 mm
07:00 AM 38.3°F3.5°C 33.0°F0.6°C 81% 8.0 mph WNW12.9 kmh WNW 17.0 mph27.4 kmh 29.54 in1000.3 mb 0.00 in0.0 mm 0.00 in0.0 mm 0.13 in3.3 mm
06:45 AM 38.5°F3.6°C 33.2°F0.7°C 81% 8.0 mph WNW12.9 kmh WNW 21.0 mph33.8 kmh 29.53 in1000.0 mb 0.00 in0.0 mm 0.00 in0.0 mm 0.13 in3.3 mm
06:30 AM 38.7°F3.7°C 33.3°F0.7°C 81% 8.0 mph WNW12.9 kmh WNW 18.0 mph29.0 kmh 29.52 in999.7 mb 0.00 in0.0 mm 0.00 in0.0 mm 0.13 in3.3 mm
06:15 AM 38.7°F3.7°C 33.3°F0.7°C 81% 10.0 mph NW16.1 kmh NW 19.0 mph30.6 kmh 29.51 in999.3 mb 0.00 in0.0 mm 0.00 in0.0 mm 0.13 in3.3 mm
06:00 AM 38.8°F3.8°C 33.5°F0.8°C 81% 10.0 mph NW16.1 kmh NW 20.0 mph32.2 kmh 29.50 in999.0 mb 0.00 in0.0 mm 0.00 in0.0 mm 0.13 in3.3 mm
05:45 AM 38.8°F3.8°C 33.2°F0.7°C 80% 11.0 mph NW17.7 kmh NW 20.0 mph32.2 kmh 29.49 in998.6 mb 0.00 in0.0 mm 0.00 in0.0 mm 0.13 in3.3 mm
05:30 AM 39.0°F3.9°C 34.0°F1.1°C 82% 9.0 mph NW14.5 kmh NW 22.0 mph35.4 kmh 29.48 in998.3 mb 0.00 in0.0 mm 0.00 in0.0 mm 0.13 in3.3 mm
05:15 AM 39.2°F4.0°C 33.9°F1.1°C 81% 12.0 mph NW19.3 kmh NW 21.0 mph33.8 kmh 29.46 in997.6 mb 0.00 in0.0 mm 0.00 in0.0 mm 0.13 in3.3 mm
05:00 AM 39.0°F3.9°C 33.7°F0.9°C 81% 13.0 mph NW20.9 kmh NW 25.0 mph40.2 kmh 29.44 in997.0 mb 0.00 in0.0 mm 0.00 in0.0 mm 0.13 in3.3 mm
04:45 AM 39.0°F3.9°C 34.6°F1.4°C 84% 10.0 mph NW16.1 kmh NW 20.0 mph32.2 kmh 29.43 in996.6 mb 0.00 in0.0 mm 0.00 in0.0 mm 0.13 in3.3 mm
04:30 AM 39.2°F4.0°C 34.8°F1.6°C 84% 11.0 mph NW17.7 kmh NW 23.0 mph37.0 kmh 29.41 in995.9 mb 0.00 in0.0 mm 0.00 in0.0 mm 0.13 in3.3 mm
04:15 AM 39.2°F4.0°C 35.1°F1.7°C 85% 11.0 mph NW17.7 kmh NW 21.0 mph33.8 kmh 29.39 in995.3 mb 0.00 in0.0 mm 0.00 in0.0 mm 0.13 in3.3 mm
04:00 AM 39.2°F4.0°C 35.4°F1.9°C 86% 12.0 mph NW19.3 kmh NW 25.0 mph40.2 kmh 29.38 in994.9 mb 0.00 in0.0 mm 0.00 in0.0 mm 0.13 in3.3 mm
03:45 AM 39.0°F3.9°C 35.5°F1.9°C 87% 14.0 mph NW22.5 kmh NW 25.0 mph40.2 kmh 29.36 in994.2 mb 0.01 in0.3 mm 0.00 in0.0 mm 0.13 in3.3 mm
03:30 AM 38.7°F3.7°C 35.7°F2.1°C 89% 13.0 mph NW20.9 kmh NW 26.0 mph41.8 kmh 29.34 in993.6 mb 0.02 in0.5 mm 0.00 in0.0 mm 0.13 in3.3 mm
03:15 AM 38.5°F3.6°C 36.1°F2.3°C 91% 13.0 mph NW20.9 kmh NW 22.0 mph35.4 kmh 29.32 in992.9 mb 0.03 in0.8 mm 0.00 in0.0 mm 0.13 in3.3 mm
03:00 AM 38.3°F3.5°C 35.9°F2.2°C 91% 12.0 mph NW19.3 kmh NW 23.0 mph37.0 kmh 29.30 in992.2 mb 0.04 in1.0 mm 0.01 in0.3 mm 0.13 in3.3 mm
02:45 AM 37.9°F3.3°C 35.8°F2.1°C 92% 13.0 mph NW20.9 kmh NW 23.0 mph37.0 kmh 29.29 in991.9 mb 0.03 in0.8 mm 0.00 in0.0 mm 0.12 in3.0 mm
02:30 AM 38.1°F3.4°C 36.0°F2.2°C 92% 12.0 mph NNW19.3 kmh NNW 21.0 mph33.8 kmh 29.27 in991.2 mb 0.03 in0.8 mm 0.00 in0.0 mm 0.11 in2.8 mm
02:15 AM 38.1°F3.4°C 36.0°F2.2°C 92% 16.0 mph NNW25.7 kmh NNW 28.0 mph45.1 kmh 29.26 in990.9 mb 0.03 in0.8 mm 0.00 in0.0 mm 0.09 in2.3 mm
02:00 AM 38.3°F3.5°C 36.2°F2.3°C 92% 15.0 mph NW24.1 kmh NW 24.0 mph38.6 kmh 29.24 in990.2 mb 0.03 in0.8 mm 0.00 in0.0 mm 0.09 in2.3 mm
01:45 AM 38.3°F3.5°C 36.2°F2.3°C 92% 14.0 mph NW22.5 kmh NW 26.0 mph41.8 kmh 29.23 in989.8 mb 0.05 in1.3 mm 0.00 in0.0 mm 0.09 in2.3 mm
01:30 AM 38.7°F3.7°C 36.5°F2.5°C 92% 15.0 mph NW24.1 kmh NW 28.0 mph45.1 kmh 29.22 in989.5 mb 0.06 in1.5 mm 0.00 in0.0 mm 0.07 in1.8 mm
01:15 AM 38.8°F3.8°C 37.0°F2.8°C 93% 16.0 mph NW25.7 kmh NW 28.0 mph45.1 kmh 29.20 in988.8 mb 0.06 in1.5 mm 0.00 in0.0 mm 0.06 in1.5 mm
01:00 AM 39.6°F4.2°C 37.7°F3.2°C 93% 13.0 mph NNW20.9 kmh NNW 23.0 mph37.0 kmh 29.17 in987.8 mb 0.06 in1.5 mm 0.00 in0.0 mm 0.06 in1.5 mm
12:45 AM 40.1°F4.5°C 38.2°F3.4°C 93% 13.0 mph NNW20.9 kmh NNW 28.0 mph45.1 kmh 29.16 in987.5 mb 0.06 in1.5 mm 0.00 in0.0 mm 0.04 in1.0 mm
12:30 AM 40.8°F4.9°C 39.2°F4.0°C 94% 14.0 mph NNW22.5 kmh NNW 26.0 mph41.8 kmh 29.15 in987.1 mb 0.09 in2.3 mm 0.00 in0.0 mm 0.02 in0.5 mm
12:15 AM 41.4°F5.2°C 39.8°F4.3°C 94% 13.0 mph NNW20.9 kmh NNW 27.0 mph43.5 kmh 29.15 in987.1 mb 0.11 in2.8 mm 0.00 in0.0 mm 0.01 in0.3 mm
12:00 AM 42.3°F5.7°C 40.7°F4.8°C 94% 11.0 mph N17.7 kmh N 20.0 mph32.2 kmh 29.14 in986.8 mb 0.11 in2.8 mm 0.00 in0.0 mm 0.11 in2.8 mm